createdAt,value
2022-11-12T00:00:50.994Z,94.58
2022-11-12T00:01:51.085Z,94.48
2022-11-12T00:02:50.968Z,94.89
2022-11-12T00:03:50.963Z,95.09
2022-11-12T00:04:50.947Z,94.73
2022-11-12T00:05:50.942Z,94.42
2022-11-12T00:06:50.967Z,94.11
2022-11-12T00:07:50.912Z,94.21
2022-11-12T00:08:50.907Z,95.03
2022-11-12T00:09:50.891Z,94.83
2022-11-12T00:10:51.003Z,94.93
2022-11-12T00:11:50.906Z,95.14
2022-11-12T00:12:50.864Z,94.52
2022-11-12T00:13:50.870Z,95.03
2022-11-12T00:14:50.831Z,95.08
2022-11-12T00:15:50.834Z,94.98
2022-11-12T00:16:50.830Z,94.87
2022-11-12T00:17:50.799Z,95.08
2022-11-12T00:18:50.790Z,95.28
2022-11-12T00:19:50.782Z,94.98
2022-11-12T00:20:50.785Z,95.28
2022-11-12T00:21:50.829Z,95.18
2022-11-12T00:22:50.749Z,95.18
2022-11-12T00:23:50.743Z,95.08
2022-11-12T00:24:50.724Z,94.92
2022-11-12T00:25:50.719Z,95.18
2022-11-12T00:26:50.831Z,95.28
2022-11-12T00:27:50.698Z,96.05
2022-11-12T00:28:50.683Z,96.21
2022-11-12T00:29:50.686Z,95.74
2022-11-12T00:30:50.653Z,95.90
2022-11-12T00:31:50.660Z,96.11
2022-11-12T00:32:50.639Z,95.95
2022-11-12T00:33:50.633Z,96.11
2022-11-12T00:34:50.616Z,95.80
2022-11-12T00:35:50.605Z,95.95
2022-11-12T00:36:50.612Z,96.31
2022-11-12T00:37:50.575Z,96.11
2022-11-12T00:38:50.566Z,95.90
2022-11-12T00:39:50.554Z,95.90
2022-11-12T00:40:50.554Z,95.90
2022-11-12T00:41:50.563Z,96.25
2022-11-12T00:42:50.638Z,96.21
2022-11-12T00:43:50.508Z,96.05
2022-11-12T00:44:50.505Z,95.74
2022-11-12T00:45:50.485Z,95.90
2022-11-12T00:46:50.491Z,96.11
2022-11-12T00:47:50.470Z,96.11
2022-11-12T00:48:50.462Z,95.84
2022-11-12T00:49:50.447Z,95.95
2022-11-12T00:50:50.434Z,95.90
2022-11-12T00:51:50.441Z,95.80
2022-11-12T00:52:50.413Z,96.25
2022-11-12T00:53:50.393Z,95.90
2022-11-12T00:54:50.393Z,96.15
2022-11-12T00:55:50.373Z,96.05
2022-11-12T00:56:50.376Z,95.95
2022-11-12T00:57:50.358Z,95.95
2022-11-12T00:58:50.464Z,95.84
2022-11-12T00:59:50.339Z,95.95
2022-11-12T01:00:50.336Z,96.36
2022-11-12T01:01:50.325Z,96.05
2022-11-12T01:02:51.295Z,96.25
2022-11-12T01:03:50.359Z,95.74
2022-11-12T01:04:50.279Z,96.15
2022-11-12T01:05:50.272Z,96.05
2022-11-12T01:06:50.339Z,96.05
2022-11-12T01:07:55.657Z,96.15
2022-11-12T01:08:51.232Z,95.23
2022-11-12T01:09:50.216Z,96.05
2022-11-12T01:10:50.209Z,96.15
2022-11-12T01:11:50.213Z,96.05
2022-11-12T01:12:50.196Z,96.15
2022-11-12T01:13:50.177Z,96.25
2022-11-12T01:14:50.286Z,96.36
2022-11-12T01:15:50.164Z,96.36
2022-11-12T01:16:50.155Z,96.46
2022-11-12T01:17:50.131Z,96.25
2022-11-12T01:18:50.125Z,96.56
2022-11-12T01:19:50.111Z,95.74
2022-11-12T01:20:50.112Z,95.53
2022-11-12T01:21:50.102Z,95.84
2022-11-12T01:22:50.071Z,95.84
2022-11-12T01:23:50.066Z,96.15
2022-11-12T01:24:50.051Z,96.25
2022-11-12T01:25:50.050Z,95.84
2022-11-12T01:26:50.041Z,96.15
2022-11-12T01:27:50.013Z,96.15
2022-11-12T01:28:50.010Z,95.95
2022-11-12T01:29:50.008Z,96.25
2022-11-12T01:30:50.131Z,95.84
2022-11-12T01:31:49.985Z,95.33
2022-11-12T01:32:49.966Z,96.36
2022-11-12T01:33:49.953Z,96.20
2022-11-12T01:34:49.943Z,96.15
2022-11-12T01:35:49.949Z,96.09
2022-11-12T01:36:49.927Z,95.95
2022-11-12T01:37:50.881Z,96.20
2022-11-12T01:38:49.895Z,96.05
2022-11-12T01:39:49.889Z,96.09
2022-11-12T01:40:49.879Z,96.20
2022-11-12T01:41:49.885Z,95.84
2022-11-12T01:42:49.856Z,95.95
2022-11-12T01:43:49.835Z,95.17
2022-11-12T01:44:49.824Z,95.43
2022-11-12T01:45:49.813Z,95.78
2022-11-12T01:46:49.945Z,95.48
2022-11-12T01:47:49.792Z,95.37
2022-11-12T01:48:49.781Z,96.30
2022-11-12T01:49:54.086Z,96.05
2022-11-12T01:50:50.766Z,96.20
2022-11-12T01:51:49.770Z,96.09
2022-11-12T01:52:49.748Z,95.99
2022-11-12T01:53:49.757Z,95.99
2022-11-12T01:54:49.718Z,95.99
2022-11-12T01:55:49.701Z,96.41
2022-11-12T01:56:49.707Z,95.89
2022-11-12T01:57:49.712Z,96.09
2022-11-12T01:58:49.686Z,95.99
2022-11-12T01:59:49.658Z,96.20
2022-11-12T02:00:49.671Z,95.68
2022-11-12T02:01:49.656Z,95.48
2022-11-12T02:02:49.760Z,95.27
2022-11-12T02:03:49.621Z,95.95
2022-11-12T02:04:49.603Z,96.09
2022-11-12T02:05:49.610Z,96.20
2022-11-12T02:06:49.637Z,95.06
2022-11-12T02:07:49.576Z,95.48
2022-11-12T02:08:49.562Z,95.58
2022-11-12T02:09:49.562Z,96.50
2022-11-12T02:10:49.550Z,96.20
2022-11-12T02:11:49.545Z,96.36
2022-11-12T02:12:49.518Z,96.36
2022-11-12T02:13:49.518Z,95.53
2022-11-12T02:14:49.494Z,95.27
2022-11-12T02:15:49.474Z,95.12
2022-11-12T02:16:49.485Z,95.27
2022-11-12T02:17:49.459Z,95.43
2022-11-12T02:18:49.559Z,95.23
2022-11-12T02:19:49.443Z,95.27
2022-11-12T02:20:49.435Z,95.12
2022-11-12T02:21:49.438Z,95.43
2022-11-12T02:22:49.405Z,95.12
2022-11-12T02:23:49.384Z,95.12
2022-11-12T02:24:49.380Z,95.17
2022-11-12T02:25:49.372Z,95.06
2022-11-12T02:26:49.377Z,95.17
2022-11-12T02:27:49.347Z,95.17
2022-11-12T02:28:49.337Z,95.53
2022-11-12T02:29:49.320Z,95.06
2022-11-12T02:30:49.307Z,95.06
2022-11-12T02:31:49.320Z,95.12
2022-11-12T02:32:49.297Z,94.76
2022-11-12T02:33:49.286Z,95.17
2022-11-12T02:34:49.381Z,95.17
2022-11-12T02:35:49.258Z,95.27
2022-11-12T02:36:49.262Z,95.17
2022-11-12T02:37:49.242Z,95.37
2022-11-12T02:38:49.216Z,95.17
2022-11-12T02:39:49.214Z,95.27
2022-11-12T02:40:49.197Z,95.37
2022-11-12T02:41:49.204Z,95.37
2022-11-12T02:42:49.180Z,95.27
2022-11-12T02:43:49.171Z,95.31
2022-11-12T02:44:49.177Z,95.68
2022-11-12T02:45:49.143Z,95.68
2022-11-12T02:46:49.154Z,95.27
2022-11-12T02:47:49.115Z,95.31
2022-11-12T02:48:49.104Z,95.27
2022-11-12T02:49:49.093Z,95.27
2022-11-12T02:50:49.199Z,95.62
2022-11-12T02:51:49.098Z,95.73
2022-11-12T02:52:49.073Z,96.24
2022-11-12T02:53:49.063Z,96.45
2022-11-12T02:54:49.039Z,96.24
2022-11-12T02:55:49.035Z,96.03
2022-11-12T02:56:49.051Z,95.89
2022-11-12T02:57:49.009Z,95.62
2022-11-12T02:58:49.002Z,96.45
2022-11-12T02:59:48.992Z,96.66
2022-11-12T03:00:49.032Z,96.03
2022-11-12T03:01:48.987Z,95.52
2022-11-12T03:02:48.982Z,96.24
2022-11-12T03:03:48.943Z,96.03
2022-11-12T03:04:49.749Z,96.24
2022-11-12T03:05:48.920Z,95.62
2022-11-12T03:06:49.117Z,96.03
2022-11-12T03:07:48.901Z,96.03
2022-11-12T03:08:48.888Z,95.62
2022-11-12T03:09:48.869Z,96.14
2022-11-12T03:10:48.863Z,96.24
2022-11-12T03:11:48.869Z,95.42
2022-11-12T03:12:48.845Z,96.34
2022-11-12T03:13:48.829Z,96.34
2022-11-12T03:14:48.825Z,96.24
2022-11-12T03:15:48.836Z,96.24
2022-11-12T03:16:48.810Z,95.83
2022-11-12T03:17:48.784Z,96.55
2022-11-12T03:18:48.768Z,95.83
2022-11-12T03:19:48.759Z,96.03
2022-11-12T03:20:48.749Z,95.56
2022-11-12T03:21:48.758Z,95.52
2022-11-12T03:22:48.840Z,96.45
2022-11-12T03:23:48.718Z,96.55
2022-11-12T03:24:48.707Z,96.45
2022-11-12T03:25:48.715Z,96.59
2022-11-12T03:26:48.713Z,96.14
2022-11-12T03:27:48.668Z,96.24
2022-11-12T03:28:48.659Z,95.56
2022-11-12T03:29:48.672Z,95.67
2022-11-12T03:30:48.635Z,96.03
2022-11-12T03:31:48.631Z,96.49
2022-11-12T03:32:48.651Z,95.67
2022-11-12T03:33:48.608Z,95.77
2022-11-12T03:34:52.897Z,95.93
2022-11-12T03:35:49.584Z,95.98
2022-11-12T03:36:48.577Z,96.08
2022-11-12T03:37:48.562Z,96.28
2022-11-12T03:38:48.665Z,95.67
2022-11-12T03:39:48.549Z,96.28
2022-11-12T03:40:48.529Z,95.36
2022-11-12T03:41:48.518Z,95.77
2022-11-12T03:42:48.511Z,96.70
2022-11-12T03:43:48.496Z,96.18
2022-11-12T03:44:48.494Z,96.28
2022-11-12T03:45:48.471Z,95.92
2022-11-12T03:46:48.469Z,96.08
2022-11-12T03:47:48.449Z,95.98
2022-11-12T03:48:48.438Z,95.61
2022-11-12T03:49:48.437Z,96.28
2022-11-12T03:50:48.419Z,96.44
2022-11-12T03:51:48.398Z,96.33
2022-11-12T03:52:48.392Z,96.53
2022-11-12T03:53:48.383Z,96.02
2022-11-12T03:54:48.516Z,96.33
2022-11-12T03:55:48.364Z,96.44
2022-11-12T03:56:48.344Z,95.81
2022-11-12T03:57:48.342Z,96.44
2022-11-12T03:58:48.329Z,95.50
2022-11-12T03:59:48.312Z,95.92
2022-11-12T04:00:48.352Z,96.33
2022-11-12T04:01:48.304Z,96.12
2022-11-12T04:02:48.279Z,96.74
2022-11-12T04:03:48.276Z,96.02
2022-11-12T04:04:48.253Z,96.74
2022-11-12T04:05:48.251Z,96.12
2022-11-12T04:06:48.271Z,96.79
2022-11-12T04:07:48.227Z,96.74
2022-11-12T04:08:48.212Z,96.53
2022-11-12T04:09:48.194Z,95.81
2022-11-12T04:10:48.320Z,95.40
2022-11-12T04:11:48.179Z,96.02
2022-11-12T04:12:48.179Z,95.81
2022-11-12T04:13:48.154Z,95.61
2022-11-12T04:14:48.145Z,95.65
2022-11-12T04:15:48.164Z,95.30
2022-11-12T04:16:48.124Z,95.76
2022-11-12T04:17:48.106Z,95.55
2022-11-12T04:18:48.098Z,95.61
2022-11-12T04:19:48.096Z,96.48
2022-11-12T04:20:48.099Z,96.06
2022-11-12T04:21:48.070Z,95.45
2022-11-12T04:22:48.063Z,95.50
2022-11-12T04:23:48.043Z,96.44
2022-11-12T04:24:48.035Z,95.92
2022-11-12T04:25:48.034Z,96.44
2022-11-12T04:26:48.127Z,96.53
2022-11-12T04:27:48.002Z,95.71
2022-11-12T04:28:47.991Z,96.58
2022-11-12T04:29:47.981Z,96.64
2022-11-12T04:30:47.982Z,96.58
2022-11-12T04:31:47.955Z,96.23
2022-11-12T04:32:47.947Z,96.06
2022-11-12T04:33:47.929Z,95.86
2022-11-12T04:34:48.018Z,96.12
2022-11-12T04:35:47.925Z,95.96
2022-11-12T04:36:47.896Z,96.17
2022-11-12T04:37:47.894Z,96.69
2022-11-12T04:38:47.886Z,96.69
2022-11-12T04:39:47.866Z,95.65
2022-11-12T04:40:47.865Z,95.65
2022-11-12T04:41:47.841Z,96.79
2022-11-12T04:42:47.953Z,95.96
2022-11-12T04:43:47.816Z,96.48
2022-11-12T04:44:47.805Z,96.58
2022-11-12T04:45:47.809Z,95.65
2022-11-12T04:46:47.785Z,96.21
2022-11-12T04:47:47.779Z,96.17
2022-11-12T04:48:47.763Z,95.86
2022-11-12T04:49:47.748Z,96.21
2022-11-12T04:50:47.754Z,96.73
2022-11-12T04:51:47.729Z,96.27
2022-11-12T04:52:47.732Z,96.62
2022-11-12T04:53:47.711Z,96.17
2022-11-12T04:54:47.689Z,96.21
2022-11-12T04:55:47.693Z,96.21
2022-11-12T04:56:47.666Z,96.11
2022-11-12T04:57:47.662Z,96.31
2022-11-12T04:58:47.765Z,96.31
2022-11-12T04:59:47.643Z,96.27
2022-11-12T05:00:47.662Z,96.31
2022-11-12T05:01:47.620Z,96.62
2022-11-12T05:02:47.609Z,96.11
2022-11-12T05:03:47.594Z,96.21
2022-11-12T05:04:47.599Z,96.31
2022-11-12T05:05:47.593Z,96.42
2022-11-12T05:06:47.622Z,96.52
2022-11-12T05:07:47.544Z,96.31
2022-11-12T05:08:47.541Z,96.21
2022-11-12T05:09:47.532Z,96.21
2022-11-12T05:10:47.661Z,96.31
2022-11-12T05:11:47.503Z,96.56
2022-11-12T05:12:47.496Z,96.42
2022-11-12T05:13:47.479Z,96.15
2022-11-12T05:14:47.586Z,96.77
2022-11-12T05:15:47.483Z,95.95
2022-11-12T05:16:47.450Z,95.95
2022-11-12T05:17:47.433Z,96.36
2022-11-12T05:18:47.428Z,96.47
2022-11-12T05:19:47.409Z,96.47
2022-11-12T05:20:47.424Z,96.15
2022-11-12T05:21:47.397Z,96.56
2022-11-12T05:23:04.499Z,96.47
2022-11-12T05:23:48.371Z,96.36
2022-11-12T05:24:47.359Z,96.47
2022-11-12T05:25:47.368Z,97.29
2022-11-12T05:26:47.338Z,97.39
2022-11-12T05:27:47.318Z,96.47
2022-11-12T05:28:47.323Z,96.52
2022-11-12T05:29:47.298Z,96.47
2022-11-12T05:30:47.421Z,96.47
2022-11-12T05:31:47.276Z,96.98
2022-11-12T05:32:47.266Z,96.36
2022-11-12T05:33:47.270Z,96.36
2022-11-12T05:34:47.423Z,96.67
2022-11-12T05:35:47.246Z,96.67
2022-11-12T05:36:47.230Z,96.47
2022-11-12T05:37:47.219Z,96.67
2022-11-12T05:38:47.207Z,96.88
2022-11-12T05:39:47.196Z,96.56
2022-11-12T05:40:47.198Z,96.47
2022-11-12T05:42:11.265Z,96.26
2022-11-12T05:42:48.154Z,96.47
2022-11-12T05:43:47.150Z,96.26
2022-11-12T05:44:47.160Z,96.09
2022-11-12T05:45:47.136Z,95.99
2022-11-12T05:46:47.221Z,96.47
2022-11-12T05:47:47.104Z,96.51
2022-11-12T05:48:47.091Z,96.51
2022-11-12T05:49:47.083Z,96.30
2022-11-12T05:51:06.606Z,96.47
2022-11-12T05:51:48.051Z,96.41
2022-11-12T05:52:47.048Z,95.84
2022-11-12T05:53:47.039Z,96.05
2022-11-12T05:54:47.031Z,96.26
2022-11-12T05:55:47.029Z,96.51
2022-11-12T05:56:47.014Z,96.67
2022-11-12T05:57:47.003Z,96.47
2022-11-12T05:58:46.980Z,96.41
2022-11-12T05:59:46.967Z,96.41
2022-11-12T06:00:46.981Z,96.56
2022-11-12T06:01:46.954Z,96.56
2022-11-12T06:02:47.155Z,95.78
2022-11-12T06:03:46.923Z,96.30
2022-11-12T06:04:46.906Z,95.78
2022-11-12T06:05:46.935Z,95.68
2022-11-12T06:06:46.943Z,95.99
2022-11-12T06:07:46.870Z,96.41
2022-11-12T06:08:46.862Z,96.41
2022-11-12T06:09:46.856Z,96.41
2022-11-12T06:10:46.875Z,96.61
2022-11-12T06:11:46.841Z,96.30
2022-11-12T06:12:46.821Z,96.51
2022-11-12T06:13:46.813Z,96.41
2022-11-12T06:14:46.807Z,96.41
2022-11-12T06:15:46.824Z,96.09
2022-11-12T06:16:46.779Z,96.30
2022-11-12T06:17:46.771Z,96.30
2022-11-12T06:18:46.867Z,96.51
2022-11-12T06:19:46.771Z,96.61
2022-11-12T06:20:46.754Z,96.51
2022-11-12T06:21:46.723Z,96.55
2022-11-12T06:22:46.714Z,96.30
2022-11-12T06:23:46.704Z,96.24
2022-11-12T06:24:46.684Z,96.41
2022-11-12T06:25:46.688Z,96.55
2022-11-12T06:26:46.664Z,96.41
2022-11-12T06:27:46.650Z,96.66
2022-11-12T06:28:46.746Z,96.20
2022-11-12T06:29:46.629Z,96.24
2022-11-12T06:30:46.640Z,96.45
2022-11-12T06:31:46.602Z,96.72
2022-11-12T06:32:46.592Z,96.55
2022-11-12T06:33:46.602Z,96.66
2022-11-12T06:34:46.716Z,96.51
2022-11-12T06:35:46.586Z,96.55
2022-11-12T06:36:46.563Z,96.55
2022-11-12T06:37:46.536Z,96.24
2022-11-12T06:38:46.536Z,96.55
2022-11-12T06:39:46.523Z,96.55
2022-11-12T06:40:46.524Z,96.14
2022-11-12T06:41:46.488Z,96.45
2022-11-12T06:42:46.515Z,96.14
2022-11-12T06:43:46.476Z,96.34
2022-11-12T06:44:46.517Z,96.66
2022-11-12T06:45:46.463Z,96.76
2022-11-12T06:46:46.434Z,96.34
2022-11-12T06:47:46.487Z,96.55
2022-11-12T06:48:46.416Z,96.66
2022-11-12T06:49:46.400Z,96.55
2022-11-12T06:50:46.525Z,96.45
2022-11-12T06:51:46.376Z,96.66
2022-11-12T06:52:46.378Z,96.03
2022-11-12T06:53:46.367Z,96.34
2022-11-12T06:54:46.344Z,96.55
2022-11-12T06:55:46.359Z,96.14
2022-11-12T06:56:46.333Z,96.34
2022-11-12T06:57:46.329Z,96.34
2022-11-12T06:58:46.304Z,96.34
2022-11-12T06:59:46.292Z,96.97
2022-11-12T07:00:46.308Z,96.24
2022-11-12T07:01:46.304Z,96.76
2022-11-12T07:02:46.261Z,96.24
2022-11-12T07:03:46.242Z,96.24
2022-11-12T07:04:46.233Z,96.66
2022-11-12T07:05:46.239Z,96.24
2022-11-12T07:06:46.427Z,96.34
2022-11-12T07:07:46.205Z,96.76
2022-11-12T07:08:46.195Z,96.55
2022-11-12T07:09:46.175Z,96.86
2022-11-12T07:10:46.175Z,95.73
2022-11-12T07:11:46.166Z,95.78
2022-11-12T07:12:52.004Z,95.94
2022-11-12T07:13:47.130Z,95.42
2022-11-12T07:14:46.127Z,95.99
2022-11-12T07:15:46.117Z,95.62
2022-11-12T07:16:46.121Z,95.62
2022-11-12T07:17:46.096Z,95.83
2022-11-12T07:18:46.094Z,95.62
2022-11-12T07:19:46.073Z,95.83
2022-11-12T07:20:46.059Z,95.83
2022-11-12T07:21:46.053Z,95.89
2022-11-12T07:22:46.156Z,95.68
2022-11-12T07:23:46.034Z,95.48
2022-11-12T07:24:46.014Z,95.43
2022-11-12T07:25:45.996Z,95.74
2022-11-12T07:26:47.647Z,95.32
2022-11-12T07:27:46.002Z,94.92
2022-11-12T07:28:45.967Z,94.35
2022-11-12T07:29:48.655Z,94.42
2022-11-12T07:30:45.972Z,94.31
2022-11-12T07:31:45.950Z,94.62
2022-11-12T07:32:49.592Z,93.38
2022-11-12T07:33:46.927Z,93.13
2022-11-12T07:34:45.893Z,93.24
2022-11-12T07:35:45.883Z,91.79
2022-11-12T07:36:45.893Z,91.96
2022-11-12T07:37:45.860Z,91.34
2022-11-12T07:38:45.967Z,91.13
2022-11-12T07:39:45.839Z,91.24
2022-11-12T07:40:45.837Z,90.47
2022-11-12T07:41:45.844Z,90.26
2022-11-12T07:42:45.811Z,90.57
2022-11-12T07:43:45.793Z,90.43
2022-11-12T07:44:45.790Z,90.22
2022-11-12T07:45:45.778Z,89.71
2022-11-12T07:46:45.783Z,89.71
2022-11-12T07:47:45.755Z,89.05
2022-11-12T07:48:45.753Z,89.36
2022-11-12T07:49:45.741Z,88.95
2022-11-12T07:50:45.724Z,88.74
2022-11-12T07:51:45.719Z,88.49
2022-11-12T07:52:45.698Z,88.23
2022-11-12T07:53:45.701Z,88.70
2022-11-12T07:54:45.791Z,88.90
2022-11-12T07:55:45.662Z,89.25
2022-11-12T07:56:45.671Z,89.31
2022-11-12T07:57:45.643Z,88.23
2022-11-12T07:58:45.630Z,88.74
2022-11-12T07:59:46.437Z,89.01
2022-11-12T08:00:45.695Z,88.80
2022-11-12T08:01:45.724Z,88.80
2022-11-12T08:02:45.582Z,88.59
2022-11-12T08:03:45.576Z,88.29
2022-11-12T08:04:45.562Z,88.18
2022-11-12T08:05:45.552Z,88.49
2022-11-12T08:06:45.746Z,88.80
2022-11-12T08:07:45.696Z,88.56
2022-11-12T08:08:45.519Z,88.59
2022-11-12T08:09:45.509Z,88.08
2022-11-12T08:10:45.603Z,88.18
2022-11-12T08:11:45.511Z,87.98
2022-11-12T08:12:45.481Z,88.18
2022-11-12T08:13:45.465Z,87.98
2022-11-12T08:14:45.449Z,88.66
2022-11-12T08:15:50.974Z,88.24
2022-11-12T08:16:46.435Z,88.14
2022-11-12T08:17:45.418Z,88.04
2022-11-12T08:18:45.401Z,88.04
2022-11-12T08:19:45.388Z,88.04
2022-11-12T08:20:45.387Z,87.73
2022-11-12T08:21:45.383Z,87.84
2022-11-12T08:22:49.235Z,87.94
2022-11-12T08:23:45.380Z,88.04
2022-11-12T08:24:45.334Z,87.94
2022-11-12T08:25:45.330Z,88.04
2022-11-12T08:26:45.449Z,87.52
2022-11-12T08:27:45.299Z,87.94
2022-11-12T08:28:45.290Z,88.14
2022-11-12T08:29:45.275Z,87.84
2022-11-12T08:30:45.273Z,88.04
2022-11-12T08:31:45.273Z,87.73
2022-11-12T08:32:45.254Z,87.73
2022-11-12T08:33:45.234Z,87.84
2022-11-12T08:34:45.218Z,87.73
2022-11-12T08:35:45.229Z,87.79
2022-11-12T08:36:45.206Z,88.04
2022-11-12T08:37:45.187Z,87.84
2022-11-12T08:38:45.185Z,88.24
2022-11-12T08:39:45.194Z,88.45
2022-11-12T08:40:45.161Z,87.90
2022-11-12T08:41:45.162Z,87.84
2022-11-12T08:42:45.244Z,88.10
2022-11-12T08:43:45.137Z,88.10
2022-11-12T08:44:45.107Z,88.20
2022-11-12T08:45:45.104Z,88.00
2022-11-12T08:46:45.110Z,88.20
2022-11-12T08:47:45.078Z,87.59
2022-11-12T08:48:45.064Z,87.34
2022-11-12T08:49:47.980Z,87.34
2022-11-12T08:50:45.041Z,87.75
2022-11-12T08:51:45.045Z,87.65
2022-11-12T08:52:45.021Z,87.65
2022-11-12T08:53:45.007Z,87.13
2022-11-12T08:54:45.007Z,87.04
2022-11-12T08:55:44.991Z,87.75
2022-11-12T08:56:44.993Z,86.89
2022-11-12T08:57:44.965Z,87.30
2022-11-12T08:58:45.071Z,86.99
2022-11-12T08:59:44.946Z,87.61
2022-11-12T09:00:44.933Z,87.10
2022-11-12T09:01:44.966Z,87.51
2022-11-12T09:02:44.913Z,87.40
2022-11-12T09:03:44.908Z,86.99
2022-11-12T09:04:44.904Z,86.75
2022-11-12T09:05:44.879Z,86.95
2022-11-12T09:06:47.664Z,86.95
2022-11-12T09:07:50.754Z,86.68
2022-11-12T09:08:45.840Z,86.33
2022-11-12T09:09:44.841Z,86.24
2022-11-12T09:10:44.819Z,85.62
2022-11-12T09:11:44.829Z,86.03
2022-11-12T09:12:44.800Z,86.03
2022-11-12T09:13:44.834Z,85.93
2022-11-12T09:14:44.894Z,85.21
2022-11-12T09:15:44.769Z,85.27
2022-11-12T09:16:44.776Z,85.27
2022-11-12T09:17:44.752Z,85.38
2022-11-12T09:18:44.736Z,85.47
2022-11-12T09:19:44.719Z,85.58
2022-11-12T09:20:44.711Z,84.55
2022-11-12T09:21:44.713Z,84.45
2022-11-12T09:22:44.692Z,84.82
2022-11-12T09:23:44.685Z,85.23
2022-11-12T09:24:44.668Z,85.13
2022-11-12T09:25:44.648Z,85.23
2022-11-12T09:26:44.657Z,84.72
2022-11-12T09:27:48.457Z,83.86
2022-11-12T09:28:44.641Z,84.17
2022-11-12T09:29:44.610Z,83.86
2022-11-12T09:30:44.715Z,83.86
2022-11-12T09:31:44.609Z,83.34
2022-11-12T09:32:44.580Z,83.65
2022-11-12T09:33:44.563Z,84.23
2022-11-12T09:34:44.549Z,83.61
2022-11-12T09:35:44.535Z,83.92
2022-11-12T09:36:44.553Z,83.68
2022-11-12T09:37:44.513Z,83.47
2022-11-12T09:38:44.510Z,82.92
2022-11-12T09:39:44.494Z,82.92
2022-11-12T09:40:44.479Z,82.21
2022-11-12T09:41:44.537Z,82.10
2022-11-12T09:42:44.464Z,81.70
2022-11-12T09:43:44.446Z,81.65
2022-11-12T09:44:44.450Z,81.24
2022-11-12T09:45:54.999Z,80.83
2022-11-12T09:46:45.551Z,81.04
2022-11-12T09:47:44.409Z,81.21
2022-11-12T09:48:44.404Z,80.60
2022-11-12T09:49:44.394Z,80.05
2022-11-12T09:50:44.399Z,79.94
2022-11-12T09:51:44.393Z,80.11
2022-11-12T09:52:44.355Z,79.60
2022-11-12T09:53:44.678Z,79.09
2022-11-12T09:54:44.338Z,79.50
2022-11-12T09:55:44.317Z,79.46
2022-11-12T09:56:44.338Z,79.46
2022-11-12T09:57:44.289Z,79.43
2022-11-12T09:58:44.277Z,78.20
2022-11-12T09:59:44.269Z,77.89
2022-11-12T10:00:45.177Z,77.55
2022-11-12T10:01:44.342Z,77.45
2022-11-12T10:02:44.347Z,77.11
2022-11-12T10:03:44.228Z,77.00
2022-11-12T10:04:44.218Z,76.39
2022-11-12T10:05:44.198Z,76.66
2022-11-12T10:06:44.281Z,75.44
2022-11-12T10:07:44.185Z,75.64
2022-11-12T10:08:44.166Z,75.40
2022-11-12T10:09:44.158Z,75.51
2022-11-12T10:10:44.145Z,76.01
2022-11-12T10:11:44.159Z,75.40
2022-11-12T10:12:44.126Z,74.49
2022-11-12T10:13:44.109Z,74.65
2022-11-12T10:14:44.110Z,74.25
2022-11-12T10:15:44.088Z,75.06
2022-11-12T10:16:44.095Z,74.96
2022-11-12T10:17:44.062Z,74.04
2022-11-12T10:18:44.180Z,74.04
2022-11-12T10:19:44.046Z,73.43
2022-11-12T10:20:44.039Z,74.38
2022-11-12T10:21:44.081Z,75.92
2022-11-12T10:22:44.015Z,75.27
2022-11-12T10:23:44.000Z,75.88
2022-11-12T10:24:43.993Z,73.91
2022-11-12T10:25:43.979Z,74.11
2022-11-12T10:26:43.985Z,73.87
2022-11-12T10:27:43.954Z,72.99
2022-11-12T10:28:43.943Z,72.86
2022-11-12T10:29:43.930Z,73.57
2022-11-12T10:30:43.924Z,73.47
2022-11-12T10:31:43.925Z,73.57
2022-11-12T10:32:43.903Z,73.06
2022-11-12T10:33:43.886Z,72.45
2022-11-12T10:34:43.991Z,72.72
2022-11-12T10:35:43.860Z,73.36
2022-11-12T10:36:43.880Z,72.65
2022-11-12T10:37:43.851Z,72.75
2022-11-12T10:38:43.836Z,73.06
2022-11-12T10:39:43.822Z,72.45
2022-11-12T10:40:43.823Z,72.34
2022-11-12T10:41:43.795Z,72.86
2022-11-12T10:42:43.806Z,72.86
2022-11-12T10:43:43.772Z,72.45
2022-11-12T10:44:43.767Z,72.72
2022-11-12T10:45:43.752Z,72.62
2022-11-12T10:46:43.762Z,72.52
2022-11-12T10:47:43.752Z,72.82
2022-11-12T10:48:43.726Z,73.33
2022-11-12T10:49:43.718Z,72.72
2022-11-12T10:50:43.812Z,73.02
2022-11-12T10:51:43.691Z,72.62
2022-11-12T10:52:43.706Z,73.54
2022-11-12T10:53:43.664Z,73.39
2022-11-12T10:54:43.661Z,73.19
2022-11-12T10:55:43.639Z,72.17
2022-11-12T10:56:43.624Z,72.65
2022-11-12T10:57:43.634Z,72.38
2022-11-12T10:58:43.601Z,72.78
2022-11-12T10:59:43.596Z,72.65
2022-11-12T11:00:43.585Z,72.75
2022-11-12T11:01:45.897Z,71.84
2022-11-12T11:02:43.577Z,72.31
2022-11-12T11:03:43.570Z,71.80
2022-11-12T11:04:43.548Z,71.57
2022-11-12T11:05:43.527Z,71.36
2022-11-12T11:06:43.701Z,71.36
2022-11-12T11:07:43.538Z,71.33
2022-11-12T11:08:43.495Z,70.42
2022-11-12T11:09:43.485Z,70.42
2022-11-12T11:10:43.466Z,70.42
2022-11-12T11:11:43.455Z,70.83
2022-11-12T11:12:43.470Z,71.13
2022-11-12T11:13:43.430Z,70.42
2022-11-12T11:14:43.431Z,70.21
2022-11-12T11:15:43.418Z,70.83
2022-11-12T11:16:43.406Z,69.98
2022-11-12T11:17:43.422Z,69.47
2022-11-12T11:18:43.381Z,69.68
2022-11-12T11:19:43.370Z,70.39
2022-11-12T11:20:44.054Z,70.39
2022-11-12T11:21:43.580Z,69.78
2022-11-12T11:22:43.465Z,69.88
2022-11-12T11:23:43.333Z,69.84
2022-11-12T11:24:43.315Z,69.74
2022-11-12T11:25:43.308Z,69.54
2022-11-12T11:26:43.294Z,70.15
2022-11-12T11:27:43.290Z,68.40
2022-11-12T11:28:43.268Z,68.43
2022-11-12T11:29:43.260Z,69.34
2022-11-12T11:30:43.263Z,69.64
2022-11-12T11:31:43.242Z,69.44
2022-11-12T11:32:43.226Z,69.92
2022-11-12T11:33:43.215Z,70.01
2022-11-12T11:34:43.202Z,68.60
2022-11-12T11:35:43.209Z,69.51
2022-11-12T11:36:43.176Z,69.92
2022-11-12T11:37:43.162Z,68.80
2022-11-12T11:38:43.273Z,68.77
2022-11-12T11:39:43.142Z,68.56
2022-11-12T11:40:43.154Z,68.56
2022-11-12T11:41:43.116Z,68.66
2022-11-12T11:42:43.120Z,68.66
2022-11-12T11:43:43.168Z,69.07
2022-11-12T11:44:43.086Z,69.17
2022-11-12T11:45:43.089Z,69.00
2022-11-12T11:46:43.064Z,69.48
2022-11-12T11:48:00.075Z,69.71
2022-11-12T11:48:44.042Z,70.32
2022-11-12T11:49:43.048Z,69.92
2022-11-12T11:50:43.042Z,70.21
2022-11-12T11:51:43.015Z,70.52
2022-11-12T11:52:43.001Z,70.21
2022-11-12T11:53:42.992Z,69.68
2022-11-12T11:54:43.185Z,69.17
2022-11-12T11:55:42.986Z,69.57
2022-11-12T11:56:42.958Z,69.88
2022-11-12T11:57:42.944Z,69.57
2022-11-12T11:58:42.939Z,68.77
2022-11-12T11:59:42.927Z,69.17
2022-11-12T12:00:42.935Z,69.54
2022-11-12T12:01:42.903Z,69.04
2022-11-12T12:02:42.897Z,68.33
2022-11-12T12:03:42.944Z,68.23
2022-11-12T12:04:42.892Z,69.24
2022-11-12T12:05:42.864Z,68.53
2022-11-12T12:06:42.967Z,68.33
2022-11-12T12:07:42.835Z,69.57
2022-11-12T12:08:42.824Z,69.54
2022-11-12T12:09:42.805Z,69.44
2022-11-12T12:11:09.484Z,69.04
2022-11-12T12:11:43.801Z,68.73
2022-11-12T12:12:42.779Z,69.37
2022-11-12T12:13:42.771Z,69.78
2022-11-12T12:14:42.769Z,69.92
2022-11-12T12:15:42.758Z,69.92
2022-11-12T12:16:42.733Z,70.39
2022-11-12T12:17:42.714Z,69.88
2022-11-12T12:18:42.703Z,70.08
2022-11-12T12:19:42.696Z,69.78
2022-11-12T12:20:42.694Z,69.65
2022-11-12T12:21:42.676Z,69.95
2022-11-12T12:22:42.661Z,69.95
2022-11-12T12:23:42.660Z,69.74
2022-11-12T12:24:42.642Z,69.01
2022-11-12T12:25:42.641Z,68.94
2022-11-12T12:26:42.732Z,68.84
2022-11-12T12:27:42.609Z,69.34
2022-11-12T12:28:42.596Z,69.04
2022-11-12T12:29:42.582Z,69.04
2022-11-12T12:30:42.579Z,69.44
2022-11-12T12:31:42.562Z,68.90
2022-11-12T12:32:42.549Z,69.21
2022-11-12T12:33:42.544Z,69.61
2022-11-12T12:34:42.530Z,69.01
2022-11-12T12:35:42.538Z,68.80
2022-11-12T12:36:42.503Z,69.51
2022-11-12T12:37:42.492Z,69.01
2022-11-12T12:38:42.482Z,68.16
2022-11-12T12:39:47.671Z,68.16
2022-11-12T12:40:43.476Z,67.96
2022-11-12T12:41:42.442Z,68.06
2022-11-12T12:42:42.543Z,68.16
2022-11-12T12:43:42.423Z,67.86
2022-11-12T12:44:42.432Z,68.47
2022-11-12T12:45:42.414Z,68.06
2022-11-12T12:46:42.389Z,68.16
2022-11-12T12:47:42.372Z,68.37
2022-11-12T12:48:42.368Z,68.33
2022-11-12T12:49:42.361Z,67.80
2022-11-12T12:50:42.344Z,67.97
2022-11-12T12:51:42.351Z,67.83
2022-11-12T12:52:42.317Z,66.72